Aeroporto :
LOGIN :

Iscrizione | Disclaimer

   EN    FR    IT 

 










Sommario :    VFR   VFR Marginale   IFR   IFR Intensivo   IFR Molto Intensivo
Visibilità : 
Base nubi : 
>= 8 km
>= 3000ft
5 / 8 km
1000 / 3000 ft
1500m / 5 km
500 / 1000 ft
800 / 1500m
200 / 500 ft
< 800m
< 200 ft
Simboli :   Temporali  Nebbia  Neve Forte  Precipitazioni Forti  Vento > 20 kt
SIGMETs :   Varie  Temporali  Ghiacco  Turbolenza  Onda orograficha  Ceneri Vulcaniche






- Altitudine del aeroporto : 359 ft
- Codice IATA : BVA


LFOB - Beauvais

ULTIMO METAR :
  • 140630Z AUTO 26005KT CAVOK 15/09 Q1018 TEMPO 3000 RADZ OVC007 BKN012TCU

METARs OBSOLETI :
  • 140600Z AUTO 26004KT CAVOK 15/09 Q1018 BECMG OVC012
  • 140530Z AUTO VRB03KT CAVOK 13/10 Q1018 BECMG 4000 RA BKN007 OVC012
  • 140500Z AUTO 14002KT CAVOK 12/09 Q1018 BECMG 4000 RA BKN007 OVC012
  • 140430Z AUTO 00000KT CAVOK 12/09 Q1018 BECMG 4000 RA BKN007 OVC012
  • 140400Z AUTO 00000KT CAVOK 12/09 Q1018 NOSIG

TAF TAF LFOB
Valido dal 14 a 06 ore il 15 a 06 ore UTC


140500Z 1406/1506 24006KT 9999 BKN030
BECMG 1406/1408 OVC012
TEMPO 1408/1410 3000 RADZ OVC007 BKN012TCU
BECMG 1410/1412 BKN018
TEMPO 1410/1416 4000 SHRA BKN013TCU
ATIS : +33 3 44 11 49 28



MetMap, La meteo Aeronautica in un colpo d'occhio ! - Copyright ORBIFLY Dicembre 2007 - Disclaimer

ORBIFLY MET'MAP TEAM :

Programmazione e sviluppo : Alexandra Zaïnal
Concezione : Baudouin d'Aumeries
Aiuto per la programmazione : Marc-Olivier Méhu
Supporto tecnico e logistico : Manuel Goepfert
Aiuto per la traduzione : Arnaldo La Scala

Contatto : metmap@orbifly.com




FONTI E CREDITI :

   NOAA